Wenatchee, Washington
Current Conditions -  °F | °C
As of 11:43 PM on Tuesday 25 Nov 2014 (Local Time) from KEAT Reporting Station
Moderate Fog Moderate Fog  
Wind Chill: 37°   Ceiling: 500
Heat Index: 37°   Visibility: 0.25mi
Dew Point: 35°   Wind: 0mph
Humidity: 93%   Direction: NA
Pressure: 30.19"   Gusts: NA
Location:  47.41°N, 120.3°W
Report Text: KEAT 260743Z AUTO 00000KT 1/4SM FG OVC005 03/02 A3019 RMK AO2 T00280017
Loading
Personal Weather Stations






























Interactive Weather Map New forecast layout! Learn more

10-Day Weather Forecast

Advertisements
Track Severe Weather on mobile